createdAt,value
2023-06-11T00:00:40.814Z,14.54
2023-06-11T00:03:10.072Z,14.56
2023-06-11T00:05:39.228Z,14.52
2023-06-11T00:08:10.984Z,14.61
2023-06-11T00:10:40.093Z,14.47
2023-06-11T00:13:09.350Z,14.49
2023-06-11T00:15:39.903Z,14.53
2023-06-11T00:18:09.112Z,14.40
2023-06-11T00:20:41.745Z,14.29
2023-06-11T00:23:11.005Z,14.25
2023-06-11T00:25:40.216Z,14.33
2023-06-11T00:28:09.408Z,14.18
2023-06-11T00:30:40.122Z,14.19
2023-06-11T00:33:09.329Z,14.15
2023-06-11T00:35:38.635Z,14.17
2023-06-11T00:38:08.344Z,14.10
2023-06-11T00:40:37.823Z,14.05
2023-06-11T00:43:08.592Z,14.02
2023-06-11T00:45:39.327Z,14.08
2023-06-11T00:48:08.517Z,14.03
2023-06-11T00:50:45.988Z,14.03
2023-06-11T00:53:15.297Z,14.01
2023-06-11T00:55:44.421Z,13.97
2023-06-11T00:58:15.678Z,13.97
2023-06-11T01:00:50.774Z,13.86
2023-06-11T01:03:28.428Z,13.90
2023-06-11T01:06:03.734Z,13.82
2023-06-11T01:08:39.890Z,13.76
2023-06-11T01:11:14.996Z,13.69
2023-06-11T01:13:46.799Z,13.67
2023-06-11T01:16:22.283Z,13.61
2023-06-11T01:18:59.337Z,13.66
2023-06-11T01:21:34.341Z,13.66
2023-06-11T01:24:13.639Z,13.59
2023-06-11T01:26:52.035Z,13.52
2023-06-11T01:29:24.800Z,13.58
2023-06-11T01:31:56.533Z,13.50
2023-06-11T01:34:26.768Z,13.50
2023-06-11T01:36:56.468Z,13.48
2023-06-11T01:39:26.248Z,13.46
2023-06-11T01:42:20.355Z,13.30
2023-06-11T01:44:51.003Z,13.35
2023-06-11T01:47:22.316Z,13.23
2023-06-11T01:49:52.272Z,13.31
2023-06-11T01:52:21.505Z,13.34
2023-06-11T01:54:50.704Z,13.25
2023-06-11T01:57:19.890Z,13.22
2023-06-11T01:59:50.561Z,13.15
2023-06-11T02:02:19.851Z,13.14
2023-06-11T02:04:49.015Z,13.16
2023-06-11T02:07:18.363Z,13.08
2023-06-11T02:09:47.634Z,13.10
2023-06-11T02:12:16.849Z,13.04
2023-06-11T02:14:46.094Z,13.09
2023-06-11T02:17:16.698Z,12.99
2023-06-11T02:19:45.964Z,12.96
2023-06-11T02:22:15.340Z,12.96
2023-06-11T02:24:44.600Z,12.97
2023-06-11T02:27:13.779Z,13.00
2023-06-11T02:29:43.239Z,12.89
2023-06-11T02:32:14.962Z,12.96
2023-06-11T02:34:44.279Z,12.95
2023-06-11T02:37:13.454Z,12.89
2023-06-11T02:39:42.705Z,12.87
2023-06-11T02:42:12.133Z,12.87
2023-06-11T02:44:41.611Z,12.90
2023-06-11T02:47:10.866Z,12.90
2023-06-11T02:49:41.345Z,12.92
2023-06-11T02:52:10.588Z,12.87
2023-06-11T02:54:39.750Z,12.89
2023-06-11T02:57:08.962Z,12.86
2023-06-11T02:59:38.102Z,12.91
2023-06-11T03:02:07.568Z,12.84
2023-06-11T03:04:37.300Z,12.74
2023-06-11T03:07:08.092Z,12.83
2023-06-11T03:09:37.645Z,12.83
2023-06-11T03:12:08.132Z,12.89
2023-06-11T03:14:37.369Z,12.96
2023-06-11T03:17:06.862Z,12.92
2023-06-11T03:19:36.290Z,13.00
2023-06-11T03:22:08.085Z,12.91
2023-06-11T03:24:37.380Z,13.01
2023-06-11T03:27:16.353Z,13.09
2023-06-11T03:29:45.671Z,13.07
2023-06-11T03:32:14.931Z,13.09
2023-06-11T03:34:47.635Z,13.21
2023-06-11T03:37:18.202Z,13.06
2023-06-11T03:39:47.448Z,13.20
2023-06-11T03:42:16.744Z,13.19
2023-06-11T03:44:46.242Z,13.28
2023-06-11T03:47:17.528Z,13.20
2023-06-11T03:49:47.260Z,13.31
2023-06-11T03:52:18.088Z,13.17
2023-06-11T03:54:47.485Z,13.28
2023-06-11T03:57:18.940Z,13.26
2023-06-11T03:59:48.656Z,13.35
2023-06-11T04:02:18.474Z,13.40
2023-06-11T04:04:48.216Z,13.41
2023-06-11T04:07:18.942Z,13.46
2023-06-11T04:09:48.101Z,13.53
2023-06-11T04:12:17.703Z,13.39
2023-06-11T04:14:46.854Z,13.37
2023-06-11T04:17:16.240Z,13.50
2023-06-11T04:19:45.663Z,13.68
2023-06-11T04:22:15.094Z,13.81
2023-06-11T04:24:46.247Z,13.89
2023-06-11T04:27:15.635Z,14.00
2023-06-11T04:29:45.780Z,13.99
2023-06-11T04:32:18.039Z,14.11
2023-06-11T04:34:49.708Z,14.20
2023-06-11T04:37:20.853Z,14.05
2023-06-11T04:39:52.649Z,14.36
2023-06-11T04:42:25.698Z,14.40
2023-06-11T04:44:57.235Z,14.75
2023-06-11T04:47:30.630Z,14.96
2023-06-11T04:50:04.208Z,15.23
2023-06-11T04:52:36.322Z,15.56
2023-06-11T04:55:10.654Z,16.03
2023-06-11T04:57:40.901Z,16.28
2023-06-11T05:00:12.898Z,15.78
2023-06-11T05:02:45.765Z,16.05
2023-06-11T05:05:16.338Z,16.12
2023-06-11T05:07:45.546Z,16.20
2023-06-11T05:10:18.825Z,16.33
2023-06-11T05:12:48.071Z,16.59
2023-06-11T05:15:17.392Z,16.23
2023-06-11T05:17:47.104Z,16.81
2023-06-11T05:20:16.871Z,16.96
2023-06-11T05:22:47.478Z,16.82
2023-06-11T05:25:20.933Z,16.85
2023-06-11T05:27:51.760Z,17.02
2023-06-11T05:30:25.392Z,17.11
2023-06-11T05:32:59.627Z,17.39
2023-06-11T05:35:28.840Z,17.40
2023-06-11T05:37:58.937Z,17.39
2023-06-11T05:40:29.889Z,17.93
2023-06-11T05:42:59.122Z,17.74
2023-06-11T05:45:28.577Z,17.92
2023-06-11T05:47:58.314Z,17.71
2023-06-11T05:50:27.875Z,17.48
2023-06-11T05:52:57.361Z,18.13
2023-06-11T05:55:26.948Z,18.22
2023-06-11T05:57:57.487Z,18.33
2023-06-11T06:00:26.852Z,18.67
2023-06-11T06:02:57.119Z,18.87
2023-06-11T06:05:31.057Z,19.16
2023-06-11T06:08:00.391Z,18.58
2023-06-11T06:10:29.984Z,19.21
2023-06-11T06:13:00.661Z,18.14
2023-06-11T06:15:29.928Z,18.71
2023-06-11T06:17:59.405Z,19.40
2023-06-11T06:20:37.716Z,19.53
2023-06-11T06:23:06.932Z,20.12
2023-06-11T06:25:39.446Z,20.21
2023-06-11T06:28:13.089Z,19.83
2023-06-11T06:30:43.507Z,19.75
2023-06-11T06:33:14.083Z,20.42
2023-06-11T06:35:43.323Z,20.46
2023-06-11T06:38:14.024Z,20.76
2023-06-11T06:40:45.328Z,20.63
2023-06-11T06:43:15.872Z,20.11
2023-06-11T06:45:45.933Z,20.80
2023-06-11T06:48:25.297Z,20.75
2023-06-11T06:50:56.403Z,20.61
2023-06-11T06:53:26.300Z,20.68
2023-06-11T06:55:55.673Z,21.00
2023-06-11T06:58:26.347Z,19.55
2023-06-11T07:00:55.844Z,20.96
2023-06-11T07:03:25.195Z,21.61
2023-06-11T07:05:54.818Z,20.88
2023-06-11T07:08:24.531Z,21.52
2023-06-11T07:10:56.395Z,21.94
2023-06-11T07:13:41.193Z,22.01
2023-06-11T07:16:12.192Z,22.05
2023-06-11T07:18:45.485Z,21.72
2023-06-11T07:21:18.029Z,20.99
2023-06-11T07:23:47.271Z,21.06
2023-06-11T07:26:19.370Z,21.23
2023-06-11T07:28:50.929Z,21.40
2023-06-11T07:31:22.473Z,21.72
2023-06-11T07:33:54.895Z,22.19
2023-06-11T07:36:25.299Z,22.74
2023-06-11T07:38:55.740Z,21.42
2023-06-11T07:41:26.152Z,22.83
2023-06-11T07:43:57.028Z,22.52
2023-06-11T07:46:26.545Z,23.06
2023-06-11T07:48:59.281Z,23.19
2023-06-11T07:51:28.538Z,23.01
2023-06-11T07:54:05.855Z,23.11
2023-06-11T07:56:36.434Z,23.45
2023-06-11T07:59:07.958Z,23.60
2023-06-11T08:01:37.386Z,22.94
2023-06-11T08:04:07.385Z,23.21
2023-06-11T08:06:38.923Z,23.90
2023-06-11T08:09:09.401Z,23.63
2023-06-11T08:11:38.949Z,23.80
2023-06-11T08:14:09.421Z,23.68
2023-06-11T08:16:38.692Z,23.80
2023-06-11T08:19:08.223Z,22.22
2023-06-11T08:21:38.098Z,23.10
2023-06-11T08:24:08.167Z,24.10
2023-06-11T08:26:37.680Z,23.58
2023-06-11T08:29:08.538Z,23.29
2023-06-11T08:31:38.348Z,23.75
2023-06-11T08:34:07.704Z,24.46
2023-06-11T08:36:36.898Z,23.98
2023-06-11T08:39:06.175Z,24.86
2023-06-11T08:41:37.189Z,24.78
2023-06-11T08:44:07.903Z,24.81
2023-06-11T08:46:37.839Z,24.97
2023-06-11T08:49:09.211Z,24.71
2023-06-11T08:51:39.910Z,24.19
2023-06-11T08:54:10.919Z,24.09
2023-06-11T08:56:41.234Z,25.04
2023-06-11T08:59:11.796Z,23.79
2023-06-11T09:01:41.646Z,25.14
2023-06-11T09:04:11.098Z,25.24
2023-06-11T09:06:49.881Z,25.45
2023-06-11T09:09:19.637Z,25.87
2023-06-11T09:11:49.108Z,25.76
2023-06-11T09:14:19.709Z,25.43
2023-06-11T09:16:50.617Z,25.69
2023-06-11T09:19:21.467Z,25.11
2023-06-11T09:21:54.465Z,25.41
2023-06-11T09:24:25.081Z,26.13
2023-06-11T09:26:55.871Z,26.12
2023-06-11T09:29:28.665Z,25.09
2023-06-11T09:32:10.076Z,24.59
2023-06-11T09:34:43.159Z,24.73
2023-06-11T09:37:13.270Z,25.34
2023-06-11T09:39:43.766Z,24.93
2023-06-11T09:42:23.558Z,25.73
2023-06-11T09:44:58.656Z,26.21
2023-06-11T09:47:28.994Z,26.30
2023-06-11T09:49:59.211Z,26.55
2023-06-11T09:52:29.154Z,25.12
2023-06-11T09:54:58.750Z,25.92
2023-06-11T09:57:30.146Z,26.59
2023-06-11T10:00:02.063Z,26.04
2023-06-11T10:02:34.142Z,26.41
2023-06-11T10:05:03.848Z,26.55
2023-06-11T10:07:34.647Z,27.57
2023-06-11T10:10:04.196Z,27.53
2023-06-11T10:12:35.062Z,28.13
2023-06-11T10:15:07.009Z,28.49
2023-06-11T10:17:37.969Z,28.39
2023-06-11T10:20:18.083Z,27.97
2023-06-11T10:22:47.361Z,27.96
2023-06-11T10:25:16.707Z,27.87
2023-06-11T10:27:46.460Z,28.42
2023-06-11T10:30:26.432Z,27.16
2023-06-11T10:32:57.773Z,27.86
2023-06-11T10:35:30.011Z,26.41
2023-06-11T10:38:06.987Z,27.45
2023-06-11T10:40:37.576Z,27.22
2023-06-11T10:43:17.587Z,27.04
2023-06-11T10:45:50.110Z,27.77
2023-06-11T10:48:30.310Z,27.92
2023-06-11T10:51:03.402Z,28.86
2023-06-11T10:53:41.010Z,28.96
2023-06-11T10:56:11.047Z,28.50
2023-06-11T10:58:41.709Z,27.82
2023-06-11T11:01:12.767Z,27.43
2023-06-11T11:03:44.199Z,28.36
2023-06-11T11:06:14.568Z,27.59
2023-06-11T11:08:43.745Z,28.84
2023-06-11T11:11:12.970Z,27.92
2023-06-11T11:13:42.584Z,29.24
2023-06-11T11:16:13.290Z,29.17
2023-06-11T11:18:42.599Z,28.33
2023-06-11T11:21:11.766Z,28.48
2023-06-11T11:23:41.144Z,28.43
2023-06-11T11:26:11.506Z,28.50
2023-06-11T11:28:40.748Z,28.72
2023-06-11T11:31:11.887Z,27.83
2023-06-11T11:33:42.520Z,28.89
2023-06-11T11:36:14.311Z,28.18
2023-06-11T11:38:43.545Z,28.12
2023-06-11T11:41:12.746Z,28.69
2023-06-11T11:43:44.051Z,29.30
2023-06-11T11:46:18.218Z,28.74
2023-06-11T11:48:49.148Z,29.10
2023-06-11T11:51:18.807Z,28.88
2023-06-11T11:53:49.007Z,29.38
2023-06-11T11:56:18.225Z,29.63
2023-06-11T11:58:48.492Z,27.83
2023-06-11T12:01:23.261Z,29.38
2023-06-11T12:04:01.772Z,28.60
2023-06-11T12:06:36.602Z,29.61
2023-06-11T12:09:09.581Z,29.27
2023-06-11T12:11:45.749Z,29.41
2023-06-11T12:14:28.500Z,29.34
2023-06-11T12:17:01.926Z,28.83
2023-06-11T12:19:36.324Z,28.76
2023-06-11T12:22:12.482Z,29.37
2023-06-11T12:24:42.272Z,29.12
2023-06-11T12:27:14.826Z,29.65
2023-06-11T12:29:55.470Z,29.15
2023-06-11T12:32:27.674Z,29.36
2023-06-11T12:35:02.408Z,29.82
2023-06-11T12:37:38.189Z,29.82
2023-06-11T12:40:13.187Z,28.94
2023-06-11T12:42:50.880Z,28.06
2023-06-11T12:45:24.103Z,28.09
2023-06-11T12:47:53.930Z,28.55
2023-06-11T12:50:27.233Z,28.23
2023-06-11T12:52:57.685Z,28.87
2023-06-11T12:55:27.395Z,29.72
2023-06-11T12:57:56.573Z,28.51
2023-06-11T13:00:27.901Z,29.41
2023-06-11T13:02:58.624Z,29.56
2023-06-11T13:05:29.563Z,29.13
2023-06-11T13:07:59.450Z,28.70
2023-06-11T13:10:39.623Z,28.84
2023-06-11T13:13:14.503Z,29.49
2023-06-11T13:15:48.620Z,29.15
2023-06-11T13:18:22.330Z,28.00
2023-06-11T13:20:57.417Z,28.56
2023-06-11T13:23:33.427Z,29.17
2023-06-11T13:26:07.959Z,28.89
2023-06-11T13:28:44.386Z,27.48
2023-06-11T13:31:18.229Z,29.49
2023-06-11T13:33:52.259Z,28.50
2023-06-11T13:36:27.136Z,29.21
2023-06-11T13:39:05.390Z,28.26
2023-06-11T13:41:35.946Z,29.06
2023-06-11T13:44:09.632Z,28.71
2023-06-11T13:46:39.403Z,28.69
2023-06-11T13:49:10.430Z,28.47
2023-06-11T13:51:43.796Z,28.86
2023-06-11T13:54:18.059Z,28.20
2023-06-11T13:56:52.489Z,28.57
2023-06-11T13:59:23.309Z,28.18
2023-06-11T14:01:55.950Z,28.92
2023-06-11T14:04:25.255Z,28.87
2023-06-11T14:06:56.360Z,28.30
2023-06-11T14:09:25.662Z,28.33
2023-06-11T14:11:54.936Z,28.23
2023-06-11T14:14:24.756Z,28.18
2023-06-11T14:16:54.022Z,28.18
2023-06-11T14:19:23.467Z,27.88
2023-06-11T14:21:53.436Z,27.91
2023-06-11T14:24:24.861Z,27.88
2023-06-11T14:26:55.763Z,27.96
2023-06-11T14:29:25.052Z,27.81
2023-06-11T14:32:01.463Z,27.76
2023-06-11T14:34:31.095Z,27.51
2023-06-11T14:37:00.428Z,26.99
2023-06-11T14:39:31.887Z,28.01
2023-06-11T14:42:01.080Z,27.62
2023-06-11T14:44:30.611Z,26.81
2023-06-11T14:46:59.808Z,27.29
2023-06-11T14:49:29.076Z,26.77
2023-06-11T14:52:00.758Z,27.32
2023-06-11T14:54:31.602Z,27.52
2023-06-11T14:57:00.800Z,27.60
2023-06-11T14:59:29.977Z,27.22
2023-06-11T15:01:59.335Z,26.95
2023-06-11T15:04:28.849Z,27.07
2023-06-11T15:06:58.972Z,27.05
2023-06-11T15:09:31.814Z,27.17
2023-06-11T15:12:08.792Z,26.98
2023-06-11T15:14:44.310Z,26.68
2023-06-11T15:17:24.198Z,27.01
2023-06-11T15:20:02.728Z,26.72
2023-06-11T15:22:41.298Z,26.64
2023-06-11T15:25:15.987Z,26.76
2023-06-11T15:27:45.676Z,26.51
2023-06-11T15:30:15.721Z,25.80
2023-06-11T15:32:49.932Z,26.25
2023-06-11T15:35:23.999Z,27.14
2023-06-11T15:37:56.761Z,26.71
2023-06-11T15:40:32.031Z,27.07
2023-06-11T15:43:19.841Z,26.95
2023-06-11T15:45:53.113Z,26.43
2023-06-11T15:48:26.351Z,26.50
2023-06-11T15:51:00.153Z,26.20
2023-06-11T15:53:33.739Z,26.22
2023-06-11T15:56:10.454Z,26.27
2023-06-11T15:58:43.238Z,26.01
2023-06-11T16:01:17.035Z,26.17
2023-06-11T16:03:51.752Z,25.91
2023-06-11T16:06:25.671Z,25.58
2023-06-11T16:09:01.277Z,26.01
2023-06-11T16:11:37.251Z,25.45
2023-06-11T16:14:10.270Z,25.15
2023-06-11T16:16:40.617Z,25.71
2023-06-11T16:19:23.526Z,25.43
2023-06-11T16:21:57.600Z,25.72
2023-06-11T16:24:30.262Z,25.55
2023-06-11T16:27:01.298Z,25.32
2023-06-11T16:29:31.904Z,25.16
2023-06-11T16:32:04.796Z,25.16
2023-06-11T16:34:36.311Z,25.07
2023-06-11T16:37:06.437Z,24.72
2023-06-11T16:39:35.922Z,24.41
2023-06-11T16:42:08.309Z,24.54
2023-06-11T16:44:38.219Z,24.81
2023-06-11T16:47:08.084Z,24.60
2023-06-11T16:49:37.658Z,24.16
2023-06-11T16:52:07.798Z,24.34
2023-06-11T16:54:38.510Z,23.93
2023-06-11T16:57:11.167Z,24.31
2023-06-11T16:59:45.799Z,23.88
2023-06-11T17:02:16.040Z,23.91
2023-06-11T17:04:45.571Z,24.02
2023-06-11T17:07:19.992Z,24.09
2023-06-11T17:09:51.896Z,24.13
2023-06-11T17:12:22.524Z,23.88
2023-06-11T17:14:54.425Z,23.68
2023-06-11T17:17:24.297Z,23.82
2023-06-11T17:19:53.535Z,23.50
2023-06-11T17:22:24.189Z,23.57
2023-06-11T17:24:55.560Z,23.45
2023-06-11T17:27:26.348Z,23.95
2023-06-11T17:29:55.705Z,23.77
2023-06-11T17:32:25.404Z,23.48
2023-06-11T17:34:57.150Z,23.81
2023-06-11T17:37:26.746Z,23.38
2023-06-11T17:39:56.237Z,23.59
2023-06-11T17:42:27.294Z,23.26
2023-06-11T17:44:56.675Z,23.22
2023-06-11T17:47:26.820Z,23.21
2023-06-11T17:49:56.027Z,22.75
2023-06-11T17:52:25.475Z,22.75
2023-06-11T17:54:55.041Z,22.75
2023-06-11T17:57:26.186Z,22.31
2023-06-11T17:59:57.284Z,21.80
2023-06-11T18:02:27.218Z,22.12
2023-06-11T18:04:56.724Z,22.13
2023-06-11T18:07:26.291Z,21.88
2023-06-11T18:09:55.501Z,21.48
2023-06-11T18:12:24.716Z,21.31
2023-06-11T18:14:54.039Z,21.01
2023-06-11T18:17:25.541Z,21.02
2023-06-11T18:19:55.620Z,20.79
2023-06-11T18:22:27.781Z,20.60
2023-06-11T18:24:57.553Z,20.57
2023-06-11T18:27:27.216Z,20.57
2023-06-11T18:29:57.092Z,20.56
2023-06-11T18:32:28.079Z,20.40
2023-06-11T18:35:00.172Z,20.25
2023-06-11T18:37:31.905Z,20.16
2023-06-11T18:40:01.527Z,20.10
2023-06-11T18:42:31.121Z,20.09
2023-06-11T18:45:02.813Z,20.08
2023-06-11T18:47:37.077Z,19.80
2023-06-11T18:50:08.308Z,19.81
2023-06-11T18:52:37.615Z,19.74
2023-06-11T18:55:08.389Z,19.67
2023-06-11T18:57:41.666Z,19.56
2023-06-11T19:00:12.916Z,19.51
2023-06-11T19:02:44.216Z,19.47
2023-06-11T19:05:14.104Z,19.38
2023-06-11T19:07:43.338Z,19.21
2023-06-11T19:10:13.393Z,19.14
2023-06-11T19:12:44.034Z,19.03
2023-06-11T19:15:16.699Z,19.01
2023-06-11T19:17:49.563Z,18.84
2023-06-11T19:20:19.839Z,18.78
2023-06-11T19:22:49.474Z,18.80
2023-06-11T19:25:19.196Z,18.64
2023-06-11T19:27:48.897Z,18.57
2023-06-11T19:30:18.309Z,18.45
2023-06-11T19:32:49.328Z,18.41
2023-06-11T19:35:19.150Z,18.38
2023-06-11T19:37:50.228Z,18.20
2023-06-11T19:40:19.774Z,18.24
2023-06-11T19:42:49.407Z,18.08
2023-06-11T19:45:19.567Z,18.10
2023-06-11T19:47:55.686Z,18.04
2023-06-11T19:50:27.189Z,18.10
2023-06-11T19:53:03.155Z,17.87
2023-06-11T19:55:33.276Z,17.81
2023-06-11T19:58:03.849Z,17.87
2023-06-11T20:00:34.134Z,17.67
2023-06-11T20:03:06.516Z,17.71
2023-06-11T20:05:40.373Z,17.57
2023-06-11T20:08:10.126Z,17.49
2023-06-11T20:10:40.509Z,17.36
2023-06-11T20:13:12.215Z,17.37
2023-06-11T20:15:41.487Z,17.33
2023-06-11T20:18:12.165Z,17.26
2023-06-11T20:20:41.754Z,17.13
2023-06-11T20:23:12.595Z,17.12
2023-06-11T20:25:42.073Z,17.08
2023-06-11T20:28:13.560Z,16.94
2023-06-11T20:30:44.247Z,16.94
2023-06-11T20:33:15.847Z,16.74
2023-06-11T20:35:46.602Z,16.92
2023-06-11T20:38:18.061Z,16.71
2023-06-11T20:40:47.758Z,16.67
2023-06-11T20:43:16.917Z,16.60
2023-06-11T20:45:54.539Z,16.63
2023-06-11T20:48:28.804Z,16.58
2023-06-11T20:50:58.261Z,16.48
2023-06-11T20:53:34.380Z,16.46
2023-06-11T20:56:04.286Z,16.47
2023-06-11T20:58:33.502Z,16.32
2023-06-11T21:01:03.354Z,16.27
2023-06-11T21:03:33.952Z,16.23
2023-06-11T21:06:03.593Z,16.15
2023-06-11T21:08:35.195Z,16.28
2023-06-11T21:11:04.845Z,16.10
2023-06-11T21:13:34.802Z,16.02
2023-06-11T21:16:04.482Z,16.03
2023-06-11T21:18:36.145Z,15.95
2023-06-11T21:21:07.228Z,15.90
2023-06-11T21:23:36.703Z,15.85
2023-06-11T21:26:06.377Z,15.89
2023-06-11T21:28:37.146Z,15.88
2023-06-11T21:31:06.374Z,15.83
2023-06-11T21:33:37.180Z,15.85
2023-06-11T21:36:06.986Z,15.88
2023-06-11T21:38:36.158Z,15.86
2023-06-11T21:41:05.269Z,15.83
2023-06-11T21:43:34.496Z,15.82
2023-06-11T21:46:03.677Z,15.88
2023-06-11T21:48:32.871Z,15.73
2023-06-11T21:51:03.371Z,15.74
2023-06-11T21:53:32.513Z,15.76
2023-06-11T21:56:01.806Z,15.76
2023-06-11T21:58:30.934Z,15.69
2023-06-11T22:01:00.218Z,15.76
2023-06-11T22:03:29.573Z,15.77
2023-06-11T22:05:59.700Z,15.65
2023-06-11T22:08:30.557Z,15.71
2023-06-11T22:10:59.675Z,15.57
2023-06-11T22:13:31.330Z,15.60
2023-06-11T22:16:00.486Z,15.62
2023-06-11T22:18:30.071Z,15.57
2023-06-11T22:20:59.975Z,15.59
2023-06-11T22:23:48.926Z,15.61
2023-06-11T22:26:19.378Z,15.50
2023-06-11T22:28:48.660Z,15.53
2023-06-11T22:31:17.917Z,15.45
2023-06-11T22:33:47.335Z,15.48
2023-06-11T22:36:16.897Z,15.48
2023-06-11T22:38:47.497Z,15.48
2023-06-11T22:41:16.631Z,15.43
2023-06-11T22:43:45.882Z,15.45
2023-06-11T22:46:15.035Z,15.39
2023-06-11T22:48:44.132Z,15.36
2023-06-11T22:51:14.152Z,15.35
2023-06-11T22:53:43.354Z,15.35
2023-06-11T22:56:14.043Z,15.29
2023-06-11T22:58:43.193Z,15.29
2023-06-11T23:01:12.365Z,15.31
2023-06-11T23:03:41.631Z,15.25
2023-06-11T23:06:11.397Z,15.27
2023-06-11T23:08:41.666Z,15.24
2023-06-11T23:11:11.017Z,15.29
2023-06-11T23:13:41.508Z,15.25
2023-06-11T23:16:11.532Z,15.21
2023-06-11T23:18:41.299Z,15.22
2023-06-11T23:21:11.613Z,15.16
2023-06-11T23:23:43.042Z,15.18
2023-06-11T23:26:13.886Z,15.11
2023-06-11T23:28:44.375Z,15.14
2023-06-11T23:31:13.489Z,15.08
2023-06-11T23:33:42.853Z,15.04
2023-06-11T23:36:13.574Z,14.97
2023-06-11T23:38:42.912Z,15.02
2023-06-11T23:41:12.484Z,15.00
2023-06-11T23:43:43.042Z,15.06
2023-06-11T23:46:13.261Z,14.97
2023-06-11T23:48:42.810Z,14.93
2023-06-11T23:51:12.470Z,14.95
2023-06-11T23:53:41.632Z,14.91
2023-06-11T23:56:10.869Z,14.89
2023-06-11T23:58:40.054Z,14.86
